CheckWX is a tool to help pilots better visualize weather data.  It is not intended as a substitute for an official pre-flight weather briefing.

21:36:50 UTC

KCNM TAF
Cavern City Air Trml Airport
Carlsbad, New Mexico, USA
KCNM 202004Z 2020/2118 02008KT P6SM SCT030 OVC040 FM202200 06008KT P6SM SCT050 BKN250 FM210300 20006KT P6SM SCT030 SCT250

Mar-20@
20:00 UTC

Mar-20 @ 20:00 UTC

Mar-20@
22:00 UTC

Mar-20 @ 22:00 UTC

KCNM 202004Z 2020/2118 02008KT P6SM SCT030 OVC040
Wind
  • 020° at 8 KTS
Cloud Levels
  • Scattered at 3,000' AGL
  • Overcast at 4,000' AGL

Mar-20@
22:00 UTC

Mar-20 @ 22:00 UTC

Mar-21@
03:00 UTC

Mar-21 @ 03:00 UTC

FM202200 06008KT P6SM SCT050 BKN250

From

From Standard forecast or significant change

Wind
  • 060° at 8 KTS
Cloud Levels
  • Scattered at 5,000' AGL
  • Broken at 25,000' AGL

Mar-21@
03:00 UTC

Mar-21 @ 03:00 UTC

Mar-21@
18:00 UTC

Mar-21 @ 18:00 UTC

FM210300 20006KT P6SM SCT030 SCT250

From

From Standard forecast or significant change

Wind
  • 200° at 6 KTS
Cloud Levels
  • Scattered at 3,000' AGL
  • Scattered at 25,000' AGL